Time;durP1;ratioP1;P1;durP2;ratioP2;P2;SDS_P1;SDS_P2;PMS_P1;PMS_P2;Temp;Humidity;BMP_temperature;BMP_pressure;BME280_temperature;BME280_humidity;BME280_pressure;Samples;Min_cycle;Max_cycle;Signal;HPM_P1;HPM_P2
2023/07/09 00:01:14;;;;;;;15.88;7.05;;;;;;;17.77;76.39;99218.81;5031682;28;20043;-38
2023/07/09 00:03:40;;;;;;;11.98;7.78;;;;;;;17.72;76.70;99217.44;5066425;28;20082;-38
2023/07/09 00:06:08;;;;;;;15.77;7.05;;;;;;;17.69;77.20;99218.50;5064328;28;20047;-38
2023/07/09 00:08:34;;;;;;;15.57;7.15;;;;;;;17.66;77.39;99215.25;5066451;28;20075;-38
2023/07/09 00:11:00;;;;;;;9.75;6.80;;;;;;;17.62;77.52;99211.16;5067383;28;20165;-38
2023/07/09 00:13:27;;;;;;;20.33;7.88;;;;;;;17.54;77.56;99216.91;5066782;28;20563;-38
2023/07/09 00:15:56;;;;;;;16.55;7.45;;;;;;;17.52;77.88;99218.84;5065117;28;20036;-38
2023/07/09 00:18:22;;;;;;;13.18;6.95;;;;;;;17.49;78.44;99219.03;5081067;28;20064;-38
2023/07/09 00:20:48;;;;;;;15.77;7.47;;;;;;;17.45;78.52;99216.72;5066746;28;20032;-39
2023/07/09 00:23:16;;;;;;;16.98;7.72;;;;;;;17.24;78.78;99191.00;5064998;28;20041;-38
2023/07/09 00:25:44;;;;;;;15.35;7.63;;;;;;;17.38;79.10;99217.16;5066575;28;20046;-39
2023/07/09 00:28:17;;;;;;;14.23;7.30;;;;;;;17.37;79.35;99212.03;5066621;28;20036;-38
2023/07/09 00:30:45;;;;;;;13.45;6.45;;;;;;;17.35;79.68;99206.88;5060046;28;20052;-39
2023/07/09 00:33:15;;;;;;;14.18;7.50;;;;;;;17.21;79.98;99182.50;5035741;28;20094;-37
2023/07/09 00:35:42;;;;;;;12.27;6.93;;;;;;;17.32;80.67;99203.63;5066485;28;20044;-38
2023/07/09 00:38:14;;;;;;;13.75;7.10;;;;;;;17.29;80.75;99203.81;5050602;28;20039;-37
2023/07/09 00:40:46;;;;;;;13.00;7.60;;;;;;;17.24;81.10;99203.28;5088057;28;20041;-38
2023/07/09 00:43:16;;;;;;;14.77;8.10;;;;;;;17.07;81.65;99178.19;5069054;28;20492;-38
2023/07/09 00:45:42;;;;;;;16.10;7.97;;;;;;;17.17;81.59;99197.63;5057895;28;20044;-38
2023/07/09 00:48:15;;;;;;;16.23;8.00;;;;;;;17.17;81.96;99202.03;5049099;28;20078;-38
2023/07/09 00:50:50;;;;;;;15.00;7.95;;;;;;;17.15;82.17;99193.44;5082711;28;20052;-38
2023/07/09 00:53:30;;;;;;;12.80;7.80;;;;;;;17.14;82.60;99195.22;5035921;28;20053;-38
2023/07/09 00:56:01;;;;;;;14.93;8.02;;;;;;;17.15;82.77;99190.81;5070960;28;20523;-38
2023/07/09 00:58:28;;;;;;;13.27;7.82;;;;;;;17.16;82.94;99185.47;5069567;28;20055;-39
2023/07/09 01:00:58;;;;;;;15.65;7.85;;;;;;;17.18;83.21;99185.31;5060997;28;20048;-38
2023/07/09 01:03:25;;;;;;;15.77;7.43;;;;;;;17.18;83.48;99187.94;5069778;28;20052;-39
2023/07/09 01:05:55;;;;;;;14.07;7.70;;;;;;;17.02;83.52;99154.03;5070765;28;20040;-38
2023/07/09 01:08:21;;;;;;;23.13;8.07;;;;;;;17.17;83.76;99173.13;5070459;28;20056;-37
2023/07/09 01:10:47;;;;;;;16.00;7.43;;;;;;;17.20;83.70;99172.94;5053025;28;20155;-38
2023/07/09 01:13:13;;;;;;;11.50;7.25;;;;;;;17.18;83.72;99174.81;5052132;28;20060;-38
2023/07/09 01:15:40;;;;;;;15.85;7.40;;;;;;;17.16;83.78;99172.31;5048209;28;20627;-38
2023/07/09 01:18:06;;;;;;;13.20;7.40;;;;;;;17.03;84.11;99160.97;5069171;28;20078;-39
2023/07/09 01:20:33;;;;;;;17.88;7.85;;;;;;;16.93;84.04;99136.28;5067226;28;20068;-38
2023/07/09 01:23:00;;;;;;;14.65;7.82;;;;;;;17.16;84.05;99168.84;5073845;28;20071;-37
2023/07/09 01:25:28;;;;;;;12.95;7.18;;;;;;;17.17;84.02;99173.97;5069019;28;20048;-38
2023/07/09 01:27:54;;;;;;;13.45;7.50;;;;;;;17.19;83.75;99169.47;5035693;28;20040;-38
2023/07/09 01:30:28;;;;;;;14.63;7.25;;;;;;;17.18;83.91;99173.03;5030487;28;20044;-38
2023/07/09 01:33:00;;;;;;;16.48;8.02;;;;;;;17.22;84.02;99176.28;5046631;28;20040;-38
2023/07/09 01:35:28;;;;;;;14.82;7.63;;;;;;;17.23;84.26;99170.09;5048637;28;20037;-39
2023/07/09 01:37:55;;;;;;;13.13;7.63;;;;;;;17.23;84.31;99175.34;5064285;28;20032;-38
2023/07/09 01:40:23;;;;;;;13.20;7.82;;;;;;;17.21;84.49;99170.22;5067562;28;20110;-38
2023/07/09 01:42:50;;;;;;;19.73;8.65;;;;;;;17.07;84.58;99144.03;5066768;28;20462;-39
2023/07/09 01:45:17;;;;;;;11.77;8.07;;;;;;;17.10;84.69;99149.09;5066985;28;20040;-38
2023/07/09 01:47:44;;;;;;;13.98;7.93;;;;;;;17.27;84.79;99175.00;5067028;28;20068;-38
2023/07/09 01:50:11;;;;;;;12.93;8.13;;;;;;;17.30;84.99;99171.34;5048816;28;20065;-38
2023/07/09 01:52:38;;;;;;;13.70;7.80;;;;;;;17.33;84.89;99171.13;5034308;28;20099;-38
2023/07/09 01:55:05;;;;;;;16.48;7.55;;;;;;;17.33;84.64;99171.13;5049153;28;20117;-38
2023/07/09 01:57:35;;;;;;;15.10;7.55;;;;;;;17.31;84.67;99170.41;5051660;28;20044;-38
2023/07/09 02:00:11;;;;;;;14.48;8.57;;;;;;;17.31;85.05;99175.66;5068101;28;20555;-37
2023/07/09 02:02:46;;;;;;;15.55;7.80;;;;;;;17.32;85.09;99169.47;5069009;28;20047;-40
2023/07/09 02:05:16;;;;;;;14.07;7.88;;;;;;;17.35;84.86;99170.06;5078128;28;20037;-37
2023/07/09 02:07:42;;;;;;;16.17;9.30;;;;;;;17.41;84.75;99171.44;5048153;28;20474;-37
2023/07/09 02:10:10;;;;;;;20.63;9.07;;;;;;;17.45;84.33;99170.25;5049517;28;20562;-38
2023/07/09 02:12:36;;;;;;;13.52;7.85;;;;;;;17.49;84.06;99176.13;5065298;28;20055;-38
2023/07/09 02:15:02;;;;;;;19.33;8.80;;;;;;;17.41;83.57;99146.94;5045603;28;20041;-39
2023/07/09 02:17:32;;;;;;;11.68;7.13;;;;;;;17.53;83.45;99165.31;5061812;28;20040;-39
2023/07/09 02:19:57;;;;;;;15.80;8.30;;;;;;;17.49;83.38;99157.72;5051307;28;20422;-39
2023/07/09 02:22:24;;;;;;;16.33;8.43;;;;;;;17.59;83.35;99164.00;5067087;28;20032;-39
2023/07/09 02:24:52;;;;;;;14.70;8.20;;;;;;;17.59;82.89;99157.00;5067976;28;20504;-39
2023/07/09 02:27:19;;;;;;;16.52;8.68;;;;;;;17.64;82.52;99156.69;5069914;28;20052;-38
2023/07/09 02:29:45;;;;;;;15.48;8.25;;;;;;;17.65;82.08;99155.72;5069123;28;20500;-39
2023/07/09 02:32:17;;;;;;;12.98;8.02;;;;;;;17.67;82.13;99153.84;5051735;28;20041;-39
2023/07/09 02:34:48;;;;;;;16.35;8.18;;;;;;;17.71;81.95;99163.19;5053237;28;20036;-39
2023/07/09 02:37:18;;;;;;;13.35;7.00;;;;;;;17.74;81.79;99165.63;5069405;28;20044;-38
2023/07/09 02:39:44;;;;;;;;;;;;;;;17.78;81.48;99160.00;5044678;28;20425;-38
2023/07/09 02:42:11;;;;;;;12.82;7.53;;;;;;;17.78;81.46;99160.00;5047732;28;19917;-38
2023/07/09 02:44:38;;;;;;;16.73;7.55;;;;;;;17.81;81.62;99153.69;5048356;28;20068;-37
2023/07/09 02:47:04;;;;;;;13.48;8.07;;;;;;;17.70;81.41;99130.78;5047564;28;20086;-37
2023/07/09 02:49:31;;;;;;;16.35;7.85;;;;;;;17.90;80.69;99157.44;5047182;28;20041;-38
2023/07/09 02:51:57;;;;;;;15.63;7.68;;;;;;;17.96;80.12;99162.25;5063817;28;20170;-39
2023/07/09 02:54:23;;;;;;;13.60;7.93;;;;;;;18.00;79.61;99159.31;5047300;28;20075;-38
2023/07/09 02:56:49;;;;;;;14.55;7.20;;;;;;;18.05;79.33;99158.97;5071560;28;20120;-39
2023/07/09 02:59:15;;;;;;;20.83;7.82;;;;;;;18.10;78.76;99160.31;5067169;28;20033;-38
2023/07/09 03:01:41;;;;;;;15.20;7.72;;;;;;;17.96;78.19;99122.78;5067696;28;20048;-38
2023/07/09 03:04:08;;;;;;;14.43;6.75;;;;;;;18.12;77.59;99139.13;5068155;28;20089;-38
2023/07/09 03:06:35;;;;;;;14.50;7.65;;;;;;;18.30;77.16;99152.72;5068137;28;20040;-38
2023/07/09 03:09:02;;;;;;;13.13;6.65;;;;;;;18.36;76.79;99157.53;5063974;28;20047;-38
2023/07/09 03:11:30;;;;;;;12.05;7.00;;;;;;;18.40;75.60;99154.56;5064681;28;20059;-37
2023/07/09 03:13:58;;;;;;;23.30;7.33;;;;;;;18.46;74.63;99156.72;5063440;28;20064;-38
2023/07/09 03:16:26;;;;;;;17.20;6.65;;;;;;;18.48;74.33;99154.81;5067986;28;20044;-39
2023/07/09 03:18:52;;;;;;;12.00;7.00;;;;;;;18.45;73.55;99127.88;5073221;28;20131;-39
2023/07/09 03:21:18;;;;;;;17.60;8.15;;;;;;;18.62;72.90;99148.56;5077278;28;20119;-39
2023/07/09 03:23:44;;;;;;;17.35;7.20;;;;;;;18.69;72.13;99156.81;5088348;28;20074;-39
2023/07/09 03:26:10;;;;;;;11.75;7.18;;;;;;;18.77;71.53;99157.91;5086898;28;20044;-39
2023/07/09 03:28:36;;;;;;;14.20;7.97;;;;;;;18.83;70.93;99151.34;5078525;28;20071;-38
2023/07/09 03:31:03;;;;;;;14.75;8.23;;;;;;;18.92;70.57;99156.75;5057952;28;20067;-39
2023/07/09 03:33:29;;;;;;;14.77;7.80;;;;;;;19.02;69.99;99148.97;5051788;28;20127;-38
2023/07/09 03:35:55;;;;;;;14.07;7.75;;;;;;;18.98;69.30;99115.91;5050728;28;20040;-39
2023/07/09 03:38:21;;;;;;;12.15;7.97;;;;;;;19.19;69.02;99140.59;5066714;28;20040;-39
2023/07/09 03:40:54;;;;;;;14.75;7.75;;;;;;;19.27;68.63;99146.09;5067661;28;20127;-39
2023/07/09 03:43:21;;;;;;;15.13;8.00;;;;;;;19.33;68.44;99142.13;5064183;28;20454;-39
2023/07/09 03:45:47;;;;;;;16.38;7.90;;;;;;;19.39;68.13;99142.50;5073945;28;20039;-38
2023/07/09 03:48:14;;;;;;;11.10;7.03;;;;;;;19.47;67.81;99144.53;5038087;28;20849;-38
2023/07/09 03:50:41;;;;;;;12.63;7.20;;;;;;;19.55;67.60;99144.78;5070364;28;20043;-39
2023/07/09 03:53:07;;;;;;;13.98;7.28;;;;;;;19.64;67.42;99151.94;5068081;28;20944;-39
2023/07/09 03:55:33;;;;;;;13.93;6.85;;;;;;;19.69;67.23;99149.78;5067792;28;20032;-38
2023/07/09 03:58:00;;;;;;;13.35;7.68;;;;;;;19.74;66.94;99147.63;5065822;28;20036;-39
2023/07/09 04:00:25;;;;;;;14.88;7.43;;;;;;;19.59;66.48;99108.44;5067549;28;20047;-38
2023/07/09 04:02:52;;;;;;;17.58;7.00;;;;;;;19.84;66.36;99143.25;5066034;28;20036;-38
2023/07/09 04:05:18;;;;;;;16.60;7.32;;;;;;;19.86;66.29;99129.97;5059176;28;20186;-39
2023/07/09 04:07:44;;;;;;;12.43;6.65;;;;;;;19.77;66.41;99117.53;5082884;28;20087;-38
2023/07/09 04:10:11;;;;;;;15.20;6.75;;;;;;;19.96;66.10;99138.81;5066670;28;20051;-39
2023/07/09 04:12:37;;;;;;;17.48;6.93;;;;;;;20.00;65.74;99142.00;5066048;28;20037;-37
2023/07/09 04:15:04;;;;;;;17.60;6.85;;;;;;;19.89;65.40;99121.78;5065830;28;20047;-38
2023/07/09 04:17:31;;;;;;;13.27;6.10;;;;;;;20.08;65.25;99144.88;5049512;28;20170;-38
2023/07/09 04:19:56;;;;;;;12.85;5.68;;;;;;;20.13;65.04;99140.06;5067397;28;20159;-39
2023/07/09 04:22:22;;;;;;;14.73;5.63;;;;;;;20.09;64.55;99128.94;5054825;28;20036;-37
2023/07/09 04:24:49;;;;;;;12.23;6.40;;;;;;;20.30;64.19;99140.38;5064619;28;20045;-38
2023/07/09 04:27:15;;;;;;;12.88;6.13;;;;;;;20.42;64.01;99142.94;5070104;28;20086;-38
2023/07/09 04:29:41;;;;;;;17.77;6.07;;;;;;;20.42;63.58;99121.84;5072061;28;20048;-38
2023/07/09 04:32:15;;;;;;;11.65;5.72;;;;;;;20.67;63.16;99138.13;5075515;28;20084;-38
2023/07/09 04:34:41;;;;;;;12.80;6.28;;;;;;;20.61;63.35;99117.53;5082797;28;20049;-38
2023/07/09 04:37:09;;;;;;;9.88;6.20;;;;;;;20.75;62.68;99116.34;5069030;28;20097;-38
2023/07/09 04:39:35;;;;;;;10.88;5.55;;;;;;;21.00;62.69;99150.28;5066850;28;20153;-39
2023/07/09 04:42:01;;;;;;;11.52;6.28;;;;;;;21.01;62.54;99122.03;5072087;28;20067;-39
2023/07/09 04:44:28;;;;;;;12.32;7.18;;;;;;;21.18;62.04;99124.13;5080442;28;20040;-39
2023/07/09 04:46:54;;;;;;;15.13;6.35;;;;;;;21.36;61.19;99138.34;5069406;28;20052;-39
2023/07/09 04:49:20;;;;;;;12.77;6.50;;;;;;;21.42;60.56;99123.75;5069483;28;20106;-38
2023/07/09 04:51:46;;;;;;;12.65;5.97;;;;;;;21.56;59.76;99126.84;5070692;28;20093;-39
2023/07/09 04:54:13;;;;;;;10.38;5.05;;;;;;;21.68;59.09;99129.41;5051700;28;20068;-39
2023/07/09 04:56:39;;;;;;;8.68;4.53;;;;;;;21.81;58.18;99120.25;5055691;28;20491;-39
2023/07/09 04:59:05;;;;;;;11.10;4.35;;;;;;;21.86;57.22;99101.31;5060241;28;20060;-38
2023/07/09 05:01:31;;;;;;;8.13;3.80;;;;;;;22.08;56.69;99116.97;5068390;28;20504;-43
2023/07/09 05:03:58;;;;;;;8.75;3.92;;;;;;;22.21;55.80;99119.31;5069206;28;20085;-39
2023/07/09 05:06:24;;;;;;;7.88;4.65;;;;;;;22.29;55.34;99116.81;5069497;28;20036;-39
2023/07/09 05:08:50;;;;;;;5.50;3.78;;;;;;;22.38;54.77;99111.50;5069959;28;20069;-39
2023/07/09 05:11:16;;;;;;;5.88;4.00;;;;;;;22.48;54.61;99110.66;5072822;28;20082;-38
2023/07/09 05:13:42;;;;;;;6.28;3.90;;;;;;;22.57;54.39;99107.13;5056633;28;20127;-39
2023/07/09 05:16:07;;;;;;;16.67;6.93;;;;;;;22.66;53.77;99114.25;5073453;28;20071;-39
2023/07/09 05:18:33;;;;;;;7.13;3.78;;;;;;;22.75;53.42;99118.72;5050968;28;20048;-38
2023/07/09 05:20:59;;;;;;;9.85;6.03;;;;;;;22.81;52.97;99104.91;5069165;28;20044;-39
2023/07/09 05:23:25;;;;;;;7.63;5.30;;;;;;;22.84;52.41;99115.19;5070273;28;20373;-38
2023/07/09 05:26:01;;;;;;;8.27;3.38;;;;;;;22.86;51.94;99107.13;5070139;28;20132;-39
2023/07/09 05:28:28;;;;;;;5.25;3.40;;;;;;;22.89;52.19;99112.09;5069181;28;20047;-39
2023/07/09 05:30:54;;;;;;;8.18;2.70;;;;;;;22.68;52.09;99069.88;5053854;28;20043;-37
2023/07/09 05:33:21;;;;;;;3.95;2.00;;;;;;;22.91;50.59;99088.94;5067940;28;20052;-38
2023/07/09 05:35:47;;;;;;;4.85;2.95;;;;;;;23.08;48.97;99096.97;5069991;28;20084;-38
2023/07/09 05:38:14;;;;;;;5.35;2.63;;;;;;;23.18;48.30;99097.78;5051199;28;20048;-39
2023/07/09 05:40:41;;;;;;;6.35;2.70;;;;;;;23.12;48.06;99079.78;5061766;28;20079;-39
2023/07/09 05:43:08;;;;;;;5.45;3.50;;;;;;;23.20;48.17;99079.88;5061749;28;20040;-38
2023/07/09 05:45:34;;;;;;;5.10;2.03;;;;;;;23.31;47.96;99104.53;5051321;28;20048;-38
2023/07/09 05:48:00;;;;;;;4.57;2.38;;;;;;;23.30;47.58;99109.00;5069102;28;20123;-39
2023/07/09 05:50:28;;;;;;;12.48;7.70;;;;;;;23.28;47.16;99103.03;5068527;28;20044;-38
2023/07/09 05:52:54;;;;;;;11.53;2.13;;;;;;;23.33;46.99;99108.75;5068344;28;20067;-39
2023/07/09 05:55:20;;;;;;;4.28;2.40;;;;;;;23.39;46.96;99104.66;5069153;28;20786;-38
2023/07/09 05:57:46;;;;;;;4.65;2.38;;;;;;;23.45;46.80;99098.72;5063181;28;20060;-39
2023/07/09 06:00:12;;;;;;;4.85;2.78;;;;;;;23.48;46.46;99095.84;5062696;28;20155;-38
2023/07/09 06:02:42;;;;;;;2.83;2.20;;;;;;;23.54;46.15;99103.22;5068276;28;20064;-38
2023/07/09 06:05:10;;;;;;;4.00;2.67;;;;;;;23.63;46.17;99103.13;5051037;28;20122;-38
2023/07/09 06:07:38;;;;;;;3.50;2.20;;;;;;;23.72;46.16;99097.91;5067627;28;20131;-38
2023/07/09 06:10:08;;;;;;;9.63;2.30;;;;;;;23.80;46.17;99098.00;5064758;28;20081;-39
2023/07/09 06:12:35;;;;;;;6.47;2.20;;;;;;;23.85;45.78;99101.88;5066063;28;20037;-40
2023/07/09 06:15:01;;;;;;;3.42;2.55;;;;;;;23.90;45.22;99098.75;5055411;28;20163;-38
2023/07/09 06:17:32;;;;;;;5.43;3.55;;;;;;;24.04;45.02;99096.41;5061850;28;20048;-39
2023/07/09 06:19:57;;;;;;;9.23;4.25;;;;;;;24.11;44.71;99083.38;5067798;28;20047;-39
2023/07/09 06:22:23;;;;;;;3.70;2.10;;;;;;;24.23;44.40;99095.47;5056795;28;20638;-39
2023/07/09 06:24:49;;;;;;;5.70;2.75;;;;;;;24.24;43.94;99072.34;5067769;28;20257;-39
2023/07/09 06:27:15;;;;;;;12.63;8.10;;;;;;;24.49;44.43;99090.19;5067220;28;20218;-37
2023/07/09 06:29:41;;;;;;;4.13;2.67;;;;;;;24.61;44.36;99094.22;5071314;28;20151;-40
2023/07/09 06:32:07;;;;;;;5.82;2.40;;;;;;;24.58;43.57;99067.97;5064351;28;20139;-39
2023/07/09 06:34:33;;;;;;;5.93;3.53;;;;;;;24.79;43.44;99084.38;5066862;28;20456;-40
2023/07/09 06:36:59;;;;;;;7.72;2.72;;;;;;;24.85;43.25;99085.59;5067591;28;20405;-39
2023/07/09 06:39:25;;;;;;;5.57;2.75;;;;;;;24.95;43.43;99086.34;5050387;28;20795;-39
2023/07/09 06:41:51;;;;;;;6.20;2.72;;;;;;;25.10;42.84;99059.97;5066981;28;20067;-38
2023/07/09 06:44:46;;;;;;;6.07;4.88;;;;;;;25.66;41.86;99065.50;5046813;28;20048;-38
2023/07/09 06:47:12;;;;;;;9.90;5.60;;;;;;;26.34;40.80;99080.38;5074349;28;20663;-39
2023/07/09 06:49:38;;;;;;;3.45;1.92;;;;;;;27.34;38.80;99075.31;5068191;28;20471;-38
2023/07/09 06:52:04;;;;;;;3.33;2.20;;;;;;;28.21;37.24;99082.16;5068190;28;20106;-39
2023/07/09 06:54:30;;;;;;;6.32;3.13;;;;;;;28.89;36.55;99075.03;5051733;28;20129;-38
2023/07/09 06:56:56;;;;;;;4.22;2.42;;;;;;;29.55;35.86;99063.34;5047225;28;20053;-39
2023/07/09 06:59:22;;;;;;;5.55;2.50;;;;;;;30.48;34.51;99060.56;5064341;28;20112;-38
2023/07/09 07:01:48;;;;;;;2.28;2.03;;;;;;;31.53;32.53;99071.06;5065455;28;20052;-40
2023/07/09 07:04:15;;;;;;;5.30;2.50;;;;;;;32.46;30.79;99064.00;5050382;28;20048;-40
2023/07/09 07:06:41;;;;;;;9.20;6.72;;;;;;;33.60;29.82;99068.69;5049599;28;20044;-40
2023/07/09 07:09:08;;;;;;;11.70;8.88;;;;;;;34.60;28.33;99066.97;5064926;28;20094;-41
2023/07/09 07:11:34;;;;;;;5.43;3.67;;;;;;;35.35;27.51;99059.56;5066782;28;20040;-44
2023/07/09 07:14:00;;;;;;;4.38;2.90;;;;;;;36.27;26.82;99057.47;5071589;28;20052;-40
2023/07/09 07:16:26;;;;;;;5.20;3.33;;;;;;;37.10;25.04;99057.25;5068385;28;20064;-42
2023/07/09 07:18:52;;;;;;;11.02;4.25;;;;;;;37.90;24.13;99062.59;5070841;28;20638;-43
2023/07/09 07:21:18;;;;;;;4.30;2.53;;;;;;;38.64;22.91;99058.72;5066852;28;20040;-43
2023/07/09 07:23:44;;;;;;;9.02;6.00;;;;;;;37.89;23.07;99061.81;5065474;28;20064;-41
2023/07/09 07:26:10;;;;;;;5.20;4.22;;;;;;;37.03;23.55;99049.19;5053500;28;20072;-41
2023/07/09 07:28:36;;;;;;;4.47;2.53;;;;;;;38.21;22.23;99047.72;5066319;28;20067;-41
2023/07/09 07:31:10;;;;;;;5.97;4.50;;;;;;;39.34;20.91;99050.75;5068454;28;20121;-40
2023/07/09 07:33:39;;;;;;;3.65;2.70;;;;;;;40.06;20.30;99055.84;5050925;28;20063;-41
2023/07/09 07:36:05;;;;;;;6.10;4.05;;;;;;;40.78;19.90;99049.06;5065480;28;20225;-41
2023/07/09 07:38:32;;;;;;;6.80;5.15;;;;;;;41.02;19.49;99045.66;5067128;28;20646;-42
2023/07/09 07:40:57;;;;;;;12.80;9.40;;;;;;;39.41;20.78;99056.00;5065600;28;20036;-40
2023/07/09 07:43:23;;;;;;;4.72;3.38;;;;;;;39.53;20.33;99032.16;5047468;28;20508;-40
2023/07/09 07:45:49;;;;;;;5.25;2.50;;;;;;;40.48;19.76;99039.59;5065112;28;20439;-44
2023/07/09 07:48:15;;;;;;;25.75;21.55;;;;;;;41.25;19.63;99040.84;5069085;28;20044;-40
2023/07/09 07:50:41;;;;;;;5.75;5.13;;;;;;;41.75;19.02;99046.47;5072570;28;20044;-41
2023/07/09 07:53:09;;;;;;;14.93;11.38;;;;;;;42.38;18.46;99043.53;5067063;28;20105;-41
2023/07/09 07:55:36;;;;;;;12.93;11.48;;;;;;;42.89;18.14;99044.25;5065569;28;20530;-40
2023/07/09 07:58:03;;;;;;;6.35;5.57;;;;;;;43.41;17.33;99041.84;5064619;28;20567;-41
2023/07/09 08:00:30;;;;;;;18.00;12.98;;;;;;;43.68;17.13;99027.75;5063842;28;20048;-41
2023/07/09 08:02:56;;;;;;;15.40;11.75;;;;;;;43.67;16.88;99003.38;5065461;28;20213;-39
2023/07/09 08:05:23;;;;;;;5.28;4.10;;;;;;;44.28;16.64;99025.69;5066542;28;20130;-42
2023/07/09 08:07:49;;;;;;;5.60;3.00;;;;;;;44.58;16.19;99025.38;5065615;28;20057;-43
2023/07/09 08:10:16;;;;;;;3.67;3.28;;;;;;;44.92;16.09;99025.28;5067459;28;20135;-42
2023/07/09 08:12:42;;;;;;;5.28;3.40;;;;;;;45.31;16.17;99018.78;5049463;28;20911;-42
2023/07/09 08:15:08;;;;;;;3.92;3.25;;;;;;;44.39;16.09;99012.69;5066045;28;20044;-42
2023/07/09 08:17:34;;;;;;;7.10;5.63;;;;;;;44.51;16.33;99013.09;5064638;28;20464;-42
2023/07/09 08:20:00;;;;;;;3.13;2.83;;;;;;;44.96;15.83;99009.06;5066160;28;20047;-42
2023/07/09 08:22:27;;;;;;;11.37;8.73;;;;;;;44.97;15.89;99008.75;5065545;28;20051;-42
2023/07/09 08:24:53;;;;;;;6.68;4.70;;;;;;;44.70;16.10;99014.03;5065957;28;20455;-43
2023/07/09 08:27:19;;;;;;;13.45;5.40;;;;;;;42.24;17.44;99013.97;5065817;28;20123;-44
2023/07/09 08:29:46;;;;;;;17.45;4.28;;;;;;;39.95;18.47;99007.81;5066135;28;20042;-43
2023/07/09 08:32:12;;;;;;;25.83;5.60;;;;;;;40.98;18.21;99002.81;5063928;28;20029;-43
2023/07/09 08:34:40;;;;;;;13.00;9.80;;;;;;;42.70;17.15;99004.94;5067026;28;20043;-41
2023/07/09 08:37:09;;;;;;;19.92;16.05;;;;;;;43.80;16.73;99005.50;5048280;28;20051;-41
2023/07/09 08:39:36;;;;;;;6.10;3.65;;;;;;;44.53;16.04;99002.66;5065004;28;20075;-42
2023/07/09 08:42:07;;;;;;;13.70;11.60;;;;;;;45.13;16.00;98988.25;5049127;28;20067;-43
2023/07/09 08:44:42;;;;;;;10.45;5.25;;;;;;;45.55;15.29;98998.38;5066308;28;20043;-42
2023/07/09 08:47:12;;;;;;;6.32;2.60;;;;;;;42.69;16.58;98995.91;5062511;28;20472;-41
2023/07/09 08:50:06;;;;;;;3.25;2.30;;;;;;;39.87;18.29;98978.34;5064202;28;20060;-42
2023/07/09 08:52:39;;;;;;;3.78;2.25;;;;;;;37.60;20.47;98957.06;5060535;28;20134;-39
2023/07/09 08:55:11;;;;;;;4.28;3.00;;;;;;;36.19;22.06;98971.16;5039326;28;20048;-39
2023/07/09 08:57:49;;;;;;;7.00;2.60;;;;;;;35.07;22.72;98970.88;5065526;28;20060;-39
2023/07/09 09:00:32;;;;;;;3.45;2.67;;;;;;;34.70;23.34;98963.91;5065584;28;20048;-39
2023/07/09 09:03:09;;;;;;;4.90;2.40;;;;;;;37.22;21.84;98961.22;5081987;28;20101;-40
2023/07/09 09:05:37;;;;;;;6.60;4.38;;;;;;;38.36;20.76;98964.56;5047444;28;20043;-40
2023/07/09 09:08:10;;;;;;;4.05;3.35;;;;;;;38.72;19.86;98954.22;5049278;28;20036;-40
2023/07/09 09:10:40;;;;;;;3.20;2.20;;;;;;;37.19;20.69;98950.06;5057608;28;20070;-39
2023/07/09 09:13:15;;;;;;;5.65;2.75;;;;;;;35.89;21.99;98947.69;5065398;28;20526;-39
2023/07/09 09:15:45;;;;;;;4.63;2.30;;;;;;;34.84;22.55;98941.06;5052190;28;20079;-39
2023/07/09 09:18:25;;;;;;;3.13;2.55;;;;;;;35.36;22.59;98936.84;5068728;28;20062;-39
2023/07/09 09:21:17;;;;;;;3.80;2.60;;;;;;;38.02;20.37;98941.22;5036737;28;20430;-39
2023/07/09 09:23:49;;;;;;;3.90;2.80;;;;;;;40.27;18.91;98923.38;5052055;28;20123;-39
2023/07/09 09:26:26;;;;;;;3.50;2.88;;;;;;;42.08;17.60;98935.06;5068893;28;20048;-40
2023/07/09 09:28:52;;;;;;;8.57;6.22;;;;;;;42.21;18.07;98942.66;5069913;28;20147;-40
2023/07/09 09:31:18;;;;;;;7.05;6.18;;;;;;;41.51;18.29;98933.41;5058966;28;20140;-40
2023/07/09 09:33:47;;;;;;;7.00;3.85;;;;;;;42.32;17.17;98936.13;5064530;28;20530;-40
2023/07/09 09:36:36;;;;;;;3.00;2.70;;;;;;;42.45;17.11;98940.19;5068929;28;20047;-40
2023/07/09 09:39:02;;;;;;;7.38;6.63;;;;;;;43.44;16.37;98934.53;5067568;28;20045;-39
2023/07/09 09:41:34;;;;;;;3.22;2.80;;;;;;;44.10;15.75;98939.47;5057233;28;20091;-40
2023/07/09 09:44:00;;;;;;;5.20;2.85;;;;;;;44.53;15.39;98931.38;5044642;28;20032;-40
2023/07/09 09:46:29;;;;;;;3.28;2.97;;;;;;;45.17;15.11;98935.53;5054320;28;20066;-40
2023/07/09 09:48:59;;;;;;;5.93;5.40;;;;;;;45.71;14.62;98941.25;5078830;28;20048;-38
2023/07/09 09:51:26;;;;;;;4.82;3.92;;;;;;;45.48;14.61;98934.78;5068562;28;20044;-42
2023/07/09 09:53:57;;;;;;;6.78;5.68;;;;;;;43.19;16.16;98914.72;5103207;28;20035;-42
2023/07/09 09:56:35;;;;;;;3.20;2.60;;;;;;;40.75;17.55;98908.63;5084203;28;20048;-41
2023/07/09 09:59:02;;;;;;;3.45;3.10;;;;;;;41.45;17.71;98918.09;5049628;28;20044;-43
2023/07/09 10:01:35;;;;;;;9.10;4.25;;;;;;;42.73;16.60;98917.69;5065699;28;20044;-45
2023/07/09 10:04:03;;;;;;;7.20;3.75;;;;;;;43.36;15.87;98904.19;5069377;28;20037;-47
2023/07/09 10:06:41;;;;;;;5.05;4.30;;;;;;;44.14;14.99;98882.97;5050416;28;20040;-46
2023/07/09 10:09:26;;;;;;;8.25;6.90;;;;;;;43.00;16.01;98915.34;5067977;28;20508;-44
2023/07/09 10:12:07;;;;;;;3.90;3.00;;;;;;;40.10;18.03;98901.72;5050307;28;20036;-48
2023/07/09 10:15:14;;;;;;;8.88;3.00;;;;;;;37.91;20.42;98904.94;5068493;28;20032;-47
2023/07/09 10:17:57;;;;;;;10.63;3.92;;;;;;;36.21;21.77;98899.50;5065730;28;20089;-42
2023/07/09 10:20:41;;;;;;;4.25;2.50;;;;;;;35.27;22.85;98895.00;5066643;28;20044;-43
2023/07/09 10:23:14;;;;;;;8.48;5.85;;;;;;;34.59;23.42;98891.72;5067247;28;20048;-44
2023/07/09 10:26:09;;;;;;;5.20;2.90;;;;;;;34.09;24.15;98905.28;5071148;28;20054;-43
2023/07/09 10:28:50;;;;;;;6.35;3.03;;;;;;;33.70;24.06;98894.88;5057772;28;20047;-43
2023/07/09 10:31:31;;;;;;;4.53;3.65;;;;;;;35.08;22.79;98896.06;5059517;28;20040;-46
2023/07/09 10:34:16;;;;;;;4.43;2.70;;;;;;;36.15;21.77;98884.19;5063378;28;20090;-44
2023/07/09 10:36:58;;;;;;;4.38;3.33;;;;;;;35.81;22.32;98883.09;5071821;28;20036;-46
2023/07/09 10:39:35;;;;;;;6.68;4.57;;;;;;;34.73;23.71;98866.19;5065044;28;20032;-44
2023/07/09 10:42:01;;;;;;;6.73;2.93;;;;;;;34.20;24.71;98888.41;5058401;28;20041;-44
2023/07/09 10:44:36;;;;;;;6.72;4.28;;;;;;;33.75;25.62;98886.94;5066262;28;20127;-43
2023/07/09 10:47:07;;;;;;;6.43;3.70;;;;;;;33.37;26.38;98895.91;5047750;28;20052;-42
2023/07/09 10:49:39;;;;;;;10.10;5.07;;;;;;;33.03;26.51;98883.66;5047413;28;20068;-43
2023/07/09 10:52:12;;;;;;;4.80;3.13;;;;;;;32.86;26.53;98887.09;5048369;28;20709;-43
2023/07/09 10:54:44;;;;;;;8.93;5.93;;;;;;;32.68;26.83;98880.53;5048685;28;20048;-42
2023/07/09 10:57:41;;;;;;;6.00;2.95;;;;;;;33.66;26.04;98883.66;5058195;28;20049;-42
2023/07/09 11:00:14;;;;;;;7.40;5.25;;;;;;;36.34;23.39;98882.16;5068203;28;20029;-42
2023/07/09 11:02:41;;;;;;;3.15;2.30;;;;;;;38.17;21.55;98887.16;5066274;28;20048;-42
2023/07/09 11:05:07;;;;;;;4.10;3.47;;;;;;;37.61;21.66;98866.47;5065455;28;20392;-42
2023/07/09 11:07:37;;;;;;;3.15;2.85;;;;;;;37.16;21.94;98861.09;5066572;28;20060;-42
2023/07/09 11:10:07;;;;;;;2.97;2.60;;;;;;;38.07;21.24;98874.25;5064843;28;20040;-42
2023/07/09 11:12:36;;;;;;;5.40;3.38;;;;;;;37.48;21.54;98874.88;5066806;28;20504;-44
2023/07/09 11:15:33;;;;;;;6.93;4.03;;;;;;;36.91;22.24;98878.47;5055287;28;20040;-44
2023/07/09 11:18:02;;;;;;;4.37;2.10;;;;;;;37.01;22.28;98871.59;5035762;28;20055;-43
2023/07/09 11:20:34;;;;;;;8.15;6.10;;;;;;;37.46;21.52;98874.34;5066995;28;20567;-42
2023/07/09 11:23:20;;;;;;;17.95;14.48;;;;;;;38.67;20.63;98859.03;5066896;28;20047;-43
2023/07/09 11:25:48;;;;;;;6.50;4.53;;;;;;;38.08;20.52;98865.03;5046876;28;20625;-44
2023/07/09 11:28:14;;;;;;;9.73;2.33;;;;;;;37.28;21.38;98861.81;5056815;28;20047;-44
2023/07/09 11:30:47;;;;;;;3.58;2.45;;;;;;;36.97;21.51;98833.31;5065899;28;20040;-44
2023/07/09 11:33:18;;;;;;;3.67;2.38;;;;;;;36.91;22.62;98851.38;5064147;28;20047;-43
2023/07/09 11:35:50;;;;;;;4.50;2.35;;;;;;;36.25;23.21;98857.34;5078729;28;20048;-44
2023/07/09 11:38:21;;;;;;;7.18;2.40;;;;;;;35.38;23.04;98859.06;5065672;28;20036;-46